Nearby METAR Reports

 

KMLI - Moline/Quad City, Illinois, USA
Distance from station: ENE 4mi, 7km
Updated: 10/21/2019 4:52am
Light thunderstorm, Rain, Overcast
Light thunderstorm, Rain, Overcast
 Wind from ESE
Wind: ESE 14 mph , 22 km/h
Temperature: 55°F , 13°C
Dew Point: 52°F , 11°C
Humidity: 88%
Barometer: 29.55 inHg , 1000.7 hPa
Summary: Light thunderstorm, Rain
Clouds: Overcast
Visibility: 8 miles , 13 km
Cloud details: Few Clouds 3900 ft
Mostly cloudy 6500 ft
Overcast 9000 ft
2019/10/21 09:52 KMLI 210952Z AUTO 11012KT 8SM -TSRA FEW039 BKN065 OVC090 13/11 A2955 RMK AO2 LTG DSNT S-W RAB34 TSB43 SLP006 P0001 T01330106
KDVN - Davenport/Quad C, Iowa, USA
Distance from station: N 14mi, 22km
Updated: 10/21/2019 4:52am
Light thunderstorm, Rain, Overcast
Light thunderstorm, Rain, Overcast
 Wind from ESE
Wind: ESE 14 mph , 22 km/h, Gust: 28 mph , 44 km/h
Temperature: 54°F , 12°C
Dew Point: 50°F , 10°C
Humidity: 88%
Barometer: 29.56 inHg , 1001 hPa
Summary: Light thunderstorm, Rain
Clouds: Overcast
Visibility: 8 miles , 13 km
Cloud details: Partly cloudy 3700 ft
Mostly cloudy 8000 ft
Overcast 9500 ft
2019/10/21 09:52 KDVN 210952Z AUTO 12012G24KT 8SM -TSRA SCT037 BKN080 OVC095 12/10 A2956 RMK AO2 PK WND 12028/0915 LTG DSNT S-W RAB44 TSB52 SLP006 P0000 T01220100
 
KMUT - Muscatine, Iowa, USA
Distance from station: W 29mi, 47km
Updated: 10/21/2019 4:55am
Light rain, Overcast
Light rain, Overcast
 Wind from SSE
Wind: SSE 12 mph , 19 km/h, Gust: 22 mph , 35 km/h
Temperature: 57°F , 14°C
Dew Point: 54°F , 12°C
Humidity: 88%
Barometer: 29.55 inHg , 1000.7 hPa
Summary: Light rain
Clouds: Overcast
Visibility: 3/4 mile , 1.2 km
Cloud details: Mostly cloudy 400 ft
Overcast 2600 ft
2019/10/21 09:55 KMUT 210955Z AUTO 16010G19KT 3/4SM -RA BKN004 OVC026 14/12 A2955 RMK AO2 VIS 1/4V3
KCWI - Clinton Muni, Iowa, USA
Distance from station: NNE 31mi, 50km
Updated: 10/21/2019 4:56am
Overcast
Overcast
 Wind from ESE
Wind: ESE 18 mph , 30 km/h, Gust: 26 mph , 43 km/h
Temperature: 55°F , 13°C
Dew Point: 52°F , 11°C
Humidity: 88%
Barometer: 29.57 inHg , 1001.4 hPa
Clouds: Overcast
Visibility: 9 miles , 14 km
Cloud details: Few Clouds 4300 ft
Partly cloudy 5500 ft
Overcast 7000 ft
2019/10/21 09:56 KCWI 210956Z AUTO 11016G23KT 9SM FEW043 SCT055 OVC070 13/11 A2957 RMK AO2 LTG DSNT SW SLP014 T01280106
 
KGBG - Galesburg, Illinois, USA
Distance from station: SSE 35mi, 56km
Updated: 10/21/2019 4:55am
Light thunderstorm, Rain, Overcast
Light thunderstorm, Rain, Overcast
 Wind from ESE
Wind: ESE 9 mph , 15 km/h
Temperature: 57°F , 14°C
Dew Point: 52°F , 11°C
Humidity: 82%
Barometer: 29.56 inHg , 1001 hPa
Summary: Light thunderstorm, Rain
Clouds: Overcast
Visibility: 10 miles , 16 km
Cloud details: Partly cloudy 6000 ft
Mostly cloudy 9000 ft
Overcast 12000 ft
2019/10/21 09:55 KGBG 210955Z AUTO 12008KT 10SM -TSRA SCT060 BKN090 OVC120 14/11 A2956 RMK AO2 LTG DSNT ALQS T01370106
KSFY - Savanna/Tritown, Illinois, USA
Distance from station: NNE 50mi, 80km
Updated: 10/21/2019 4:55am
Mostly cloudy
Mostly cloudy
 Wind from ESE
Wind: ESE 18 mph , 30 km/h, Gust: 25 mph , 41 km/h
Temperature: 54°F , 12°C
Dew Point: 50°F , 10°C
Humidity: 88%
Barometer: 29.59 inHg , 1002 hPa
Clouds: Mostly cloudy
Visibility: 7 miles , 11 km
Cloud details: Partly cloudy 4000 ft
Partly cloudy 5500 ft
Mostly cloudy 7500 ft
2019/10/21 09:55 KSFY 210955Z AUTO 11016G22KT 7SM SCT040 SCT055 BKN075 12/10 A2959 RMK AO2 LTG DSNT S THRU NW